TS Echo — V7RS5 — position and weather

sailwx.info

Track history (hours):
 
Tides and Currents Weather Stations Pressure Air Temp Water Temp Dewpoint Dewpoint Depression Visibility Wind Speed Wind Dir Waves Ship Positions

TS Echo

Last reported at 2019-Jan-29 23:14 UTC. Time now 2019-Feb-21 11:54 UTC.
Position S 28°38' W 048°35'.
Warning: this ship's position is 22 days out of date.

Length 182 m; draft 7.1 m.

Type: Cargo ship. MMSI: 538006823.

Date/timePositionNaut miles runAvg speedWind from/ knotsBaromVisibWave heightAir tempDewpointWater temp
2019-Jan-29 23:14S 28°38' W 048°35'712.3
2019-Jan-29 22:43S 28°33' W 048°31'612.2
2019-Jan-29 22:12S 28°27' W 048°29'8213.1
2019-Jan-29 15:58S 27°06' W 048°15'712.6
2019-Jan-29 15:23S 26°59' W 048°16'2212.5
2019-Jan-29 13:35S 26°36' W 048°17'212.4
2019-Jan-29 13:28S 26°35' W 048°17'812.3
2019-Jan-29 12:50S 26°27' W 048°17'5012.2
2019-Jan-29 08:45S 25°37' W 048°16'  
Track history (hours):
 
Tides and Currents Weather Stations Pressure Air Temp Water Temp Dewpoint Dewpoint Depression Visibility Wind Speed Wind Dir Waves Ship Positions

TS Echo

Last reported at 2019-Jan-29 23:14 UTC. Time now 2019-Feb-21 11:54 UTC.
Position S 28°38' W 048°35'.
Warning: this ship's position is 22 days out of date.

Length 182 m; draft 7.1 m.

Type: Cargo ship. MMSI: 538006823.

Date/timePositionNaut miles runAvg speedWind from/ knotsBaromVisibWave heightAir tempDewpointWater temp
2019-Jan-29 23:14S 28°38' W 048°35'712.3
2019-Jan-29 22:43S 28°33' W 048°31'612.2
2019-Jan-29 22:12S 28°27' W 048°29'8213.1
2019-Jan-29 15:58S 27°06' W 048°15'712.6
2019-Jan-29 15:23S 26°59' W 048°16'2212.5
2019-Jan-29 13:35S 26°36' W 048°17'212.4
2019-Jan-29 13:28S 26°35' W 048°17'812.3
2019-Jan-29 12:50S 26°27' W 048°17'5012.2
2019-Jan-29 08:45S 25°37' W 048°16'  

Dump ship's entire track history